createdAt,value
2017-06-08T00:04:09.531Z,0
2017-06-08T00:04:50.072Z,0
2017-06-08T00:05:30.602Z,0
2017-06-08T00:06:11.152Z,0
2017-06-08T00:06:51.685Z,0
2017-06-08T00:07:32.226Z,0
2017-06-08T00:08:12.764Z,0
2017-06-08T00:08:53.300Z,0
2017-06-08T00:09:33.838Z,0
2017-06-08T00:10:14.410Z,0
2017-06-08T00:10:54.918Z,0
2017-06-08T00:11:35.466Z,0
2017-06-08T00:12:16.011Z,0
2017-06-08T00:12:56.567Z,0
2017-06-08T00:13:37.091Z,0
2017-06-08T00:14:17.629Z,0
2017-06-08T00:14:58.169Z,0
2017-06-08T00:15:38.703Z,0
2017-06-08T00:16:19.239Z,0
2017-06-08T00:16:59.778Z,0
2017-06-08T00:17:40.324Z,0
2017-06-08T00:18:20.866Z,0
2017-06-08T00:19:01.410Z,0
2017-06-08T00:19:41.950Z,0
2017-06-08T00:20:22.492Z,0
2017-06-08T00:21:03.032Z,0
2017-06-08T00:21:43.575Z,0
2017-06-08T00:22:24.113Z,0
2017-06-08T00:23:04.660Z,0
2017-06-08T00:23:45.200Z,0
2017-06-08T00:24:25.740Z,0
2017-06-08T00:25:06.289Z,0
2017-06-08T00:25:46.823Z,0
2017-06-08T00:26:27.379Z,0
2017-06-08T00:27:07.923Z,0
2017-06-08T00:27:48.465Z,0
2017-06-08T00:28:29.008Z,0
2017-06-08T00:29:09.561Z,0
2017-06-08T00:29:50.166Z,0
2017-06-08T00:30:30.708Z,0
2017-06-08T00:31:11.242Z,0
2017-06-08T00:31:51.789Z,0
2017-06-08T00:32:32.343Z,0
2017-06-08T00:33:12.881Z,0
2017-06-08T00:33:53.421Z,0
2017-06-08T00:34:33.966Z,0
2017-06-08T00:35:14.493Z,0
2017-06-08T00:35:55.032Z,0
2017-06-08T00:36:35.571Z,0
2017-06-08T00:37:16.118Z,0
2017-06-08T00:37:56.661Z,0
2017-06-08T00:38:37.209Z,0
2017-06-08T00:39:17.751Z,0
2017-06-08T00:39:58.307Z,0
2017-06-08T00:40:38.866Z,0
2017-06-08T00:41:19.414Z,0
2017-06-08T00:41:59.965Z,0
2017-06-08T00:42:40.527Z,0
2017-06-08T00:43:21.073Z,0
2017-06-08T00:44:01.615Z,0
2017-06-08T00:44:42.157Z,0
2017-06-08T00:45:22.718Z,0
2017-06-08T00:46:03.272Z,0
2017-06-08T00:46:43.819Z,0
2017-06-08T00:47:24.359Z,0
2017-06-08T00:48:04.910Z,0
2017-06-08T00:48:45.435Z,0
2017-06-08T00:49:25.974Z,0
2017-06-08T00:50:06.503Z,0
2017-06-08T00:50:47.047Z,0
2017-06-08T00:51:27.587Z,0
2017-06-08T00:52:08.124Z,0
2017-06-08T00:52:48.663Z,0
2017-06-08T00:53:29.213Z,0
2017-06-08T00:54:09.757Z,0
2017-06-08T00:54:50.295Z,0
2017-06-08T00:55:30.863Z,0
2017-06-08T00:56:11.373Z,0
2017-06-08T00:56:51.911Z,0
2017-06-08T00:57:32.452Z,0
2017-06-08T00:58:12.997Z,0
2017-06-08T00:58:53.539Z,0
2017-06-08T00:59:34.083Z,0
2017-06-08T01:00:14.633Z,0
2017-06-08T01:00:55.173Z,0
2017-06-08T01:01:35.721Z,0
2017-06-08T01:02:16.256Z,0
2017-06-08T01:02:56.795Z,0
2017-06-08T01:03:37.332Z,0
2017-06-08T01:04:17.870Z,0
2017-06-08T01:04:58.415Z,0
2017-06-08T01:05:38.956Z,0
2017-06-08T01:06:19.517Z,0
2017-06-08T01:07:00.055Z,0
2017-06-08T01:07:40.581Z,0
2017-06-08T01:08:21.128Z,0
2017-06-08T01:09:01.671Z,0
2017-06-08T01:09:42.217Z,0
2017-06-08T01:10:22.765Z,0
2017-06-08T01:11:03.309Z,0
2017-06-08T01:11:43.857Z,0
2017-06-08T01:12:24.406Z,0
2017-06-08T01:13:04.959Z,0
2017-06-08T01:13:45.500Z,0
2017-06-08T01:14:26.040Z,0
2017-06-08T01:15:06.580Z,0
2017-06-08T01:15:47.124Z,0
2017-06-08T01:16:27.662Z,0
2017-06-08T01:17:08.201Z,0
2017-06-08T01:17:48.738Z,0
2017-06-08T01:18:29.296Z,0
2017-06-08T01:19:09.822Z,0
2017-06-08T01:19:50.353Z,0
2017-06-08T01:20:30.883Z,0
2017-06-08T01:21:11.429Z,0
2017-06-08T01:21:51.963Z,0
2017-06-08T01:22:32.522Z,0
2017-06-08T01:23:13.041Z,0
2017-06-08T01:23:53.568Z,0
2017-06-08T01:24:34.109Z,0
2017-06-08T01:25:14.645Z,0
2017-06-08T01:25:55.193Z,0
2017-06-08T01:26:35.733Z,0
2017-06-08T01:27:16.275Z,0
2017-06-08T01:27:56.818Z,0
2017-06-08T01:28:37.361Z,0
2017-06-08T01:29:17.904Z,0
2017-06-08T01:29:58.454Z,0
2017-06-08T01:30:39.003Z,0
2017-06-08T01:31:19.545Z,0
2017-06-08T01:32:00.100Z,0
2017-06-08T01:32:40.624Z,0
2017-06-08T01:33:21.176Z,0
2017-06-08T01:34:01.710Z,0
2017-06-08T01:34:42.248Z,0
2017-06-08T01:35:22.795Z,0
2017-06-08T01:36:03.339Z,0
2017-06-08T01:36:43.886Z,0
2017-06-08T01:37:24.425Z,0
2017-06-08T01:38:04.978Z,0
2017-06-08T01:38:45.512Z,0
2017-06-08T01:39:26.053Z,0
2017-06-08T01:40:06.636Z,0
2017-06-08T01:40:47.176Z,0
2017-06-08T01:41:27.712Z,0
2017-06-08T01:42:08.263Z,0
2017-06-08T01:42:48.809Z,0
2017-06-08T01:43:29.355Z,0
2017-06-08T01:44:09.891Z,0
2017-06-08T01:44:50.440Z,0
2017-06-08T01:45:30.989Z,0
2017-06-08T01:46:11.529Z,0
2017-06-08T01:46:52.093Z,0
2017-06-08T01:47:32.643Z,0
2017-06-08T01:48:13.195Z,0
2017-06-08T01:48:53.737Z,0
2017-06-08T01:49:34.272Z,0
2017-06-08T01:50:14.816Z,0
2017-06-08T01:50:55.361Z,0
2017-06-08T01:51:35.904Z,0
2017-06-08T01:52:16.445Z,0
2017-06-08T01:52:56.987Z,0
2017-06-08T01:53:37.533Z,0
2017-06-08T01:54:18.079Z,0
2017-06-08T01:54:58.604Z,0
2017-06-08T01:55:39.129Z,0
2017-06-08T01:56:19.670Z,0
2017-06-08T01:57:00.206Z,0
2017-06-08T01:57:40.750Z,0
2017-06-08T01:58:21.289Z,0
2017-06-08T01:59:01.871Z,0
2017-06-08T01:59:42.386Z,0
2017-06-08T02:00:22.927Z,0
2017-06-08T02:01:03.467Z,0
2017-06-08T02:01:44.007Z,0
2017-06-08T02:02:24.529Z,0
2017-06-08T02:03:05.073Z,0
2017-06-08T02:03:45.605Z,0
2017-06-08T02:04:26.151Z,0
2017-06-08T02:05:06.689Z,0
2017-06-08T02:05:47.238Z,0
2017-06-08T02:06:27.787Z,0
2017-06-08T02:07:08.338Z,0
2017-06-08T02:07:48.863Z,0
2017-06-08T02:08:29.412Z,0
2017-06-08T02:09:09.963Z,0
2017-06-08T02:09:50.492Z,0
2017-06-08T02:10:31.036Z,0
2017-06-08T02:11:11.585Z,0
2017-06-08T02:11:52.163Z,0
2017-06-08T02:12:32.696Z,0
2017-06-08T02:13:13.238Z,0
2017-06-08T02:13:53.790Z,0
2017-06-08T02:14:34.334Z,0
2017-06-08T02:15:14.871Z,0
2017-06-08T02:15:55.411Z,0
2017-06-08T02:16:35.947Z,0
2017-06-08T02:17:16.498Z,0
2017-06-08T02:17:57.039Z,0
2017-06-08T02:18:37.573Z,0
2017-06-08T02:19:18.101Z,0
2017-06-08T02:19:58.635Z,0
2017-06-08T02:20:39.173Z,0
2017-06-08T02:21:19.706Z,0
2017-06-08T02:22:00.258Z,0
2017-06-08T02:22:40.808Z,0
2017-06-08T02:23:21.352Z,0
2017-06-08T02:24:01.896Z,0
2017-06-08T02:24:42.431Z,0
2017-06-08T02:25:22.980Z,0
2017-06-08T02:26:03.532Z,0
2017-06-08T02:26:44.076Z,0
2017-06-08T02:27:24.607Z,0
2017-06-08T02:28:05.148Z,0
2017-06-08T02:28:45.682Z,0
2017-06-08T02:29:26.224Z,0
2017-06-08T02:30:06.767Z,0
2017-06-08T02:30:47.316Z,0
2017-06-08T02:31:27.866Z,0
2017-06-08T02:32:08.414Z,0
2017-06-08T02:32:48.943Z,0
2017-06-08T02:33:29.467Z,0
2017-06-08T02:34:10.060Z,0
2017-06-08T02:34:50.613Z,0
2017-06-08T02:35:31.158Z,0
2017-06-08T02:36:11.704Z,0
2017-06-08T02:36:52.257Z,0
2017-06-08T02:37:32.810Z,0
2017-06-08T02:38:13.313Z,0
2017-06-08T02:38:53.864Z,0
2017-06-08T02:39:34.407Z,0
2017-06-08T02:40:14.946Z,0
2017-06-08T02:40:55.496Z,0
2017-06-08T02:41:36.037Z,0
2017-06-08T02:42:16.586Z,0
2017-06-08T02:42:57.131Z,0
2017-06-08T02:43:37.688Z,0
2017-06-08T02:44:18.232Z,0
2017-06-08T02:44:58.780Z,0
2017-06-08T02:45:39.322Z,0
2017-06-08T02:46:19.862Z,0
2017-06-08T02:47:00.418Z,0
2017-06-08T02:47:40.957Z,0
2017-06-08T02:48:21.508Z,0
2017-06-08T02:49:02.035Z,0
2017-06-08T02:49:42.576Z,0
2017-06-08T02:50:23.126Z,0
2017-06-08T02:51:03.677Z,0
2017-06-08T02:51:44.208Z,0
2017-06-08T02:52:24.746Z,0
2017-06-08T02:53:05.293Z,0
2017-06-08T02:53:45.839Z,0
2017-06-08T02:54:26.382Z,0
2017-06-08T02:55:06.919Z,0
2017-06-08T02:55:47.522Z,0
2017-06-08T02:56:28.051Z,0
2017-06-08T02:57:08.616Z,0
2017-06-08T02:57:49.167Z,0
2017-06-08T02:58:29.703Z,0
2017-06-08T02:59:10.252Z,0
2017-06-08T02:59:50.799Z,0
2017-06-08T03:00:31.337Z,0
2017-06-08T03:01:11.879Z,0
2017-06-08T03:01:52.394Z,0
2017-06-08T03:02:32.940Z,0
2017-06-08T03:03:13.500Z,0
2017-06-08T03:03:54.043Z,0
2017-06-08T03:04:34.593Z,0
2017-06-08T03:05:15.154Z,0
2017-06-08T03:05:55.696Z,0
2017-06-08T03:06:36.238Z,0
2017-06-08T03:07:16.776Z,0
2017-06-08T03:07:57.316Z,0
2017-06-08T03:08:37.863Z,0
2017-06-08T03:09:18.429Z,0
2017-06-08T03:09:58.972Z,0
2017-06-08T03:10:39.523Z,0
2017-06-08T03:11:20.063Z,0
2017-06-08T03:12:00.613Z,0
2017-06-08T03:12:41.154Z,0
2017-06-08T03:13:21.686Z,0
2017-06-08T03:14:02.242Z,0
2017-06-08T03:14:42.803Z,0
2017-06-08T03:15:23.351Z,0
2017-06-08T03:16:03.902Z,0
2017-06-08T03:16:44.449Z,0
2017-06-08T03:17:24.994Z,0
2017-06-08T03:18:05.551Z,0
2017-06-08T03:18:46.094Z,0
2017-06-08T03:19:26.647Z,0
2017-06-08T03:20:07.185Z,0
2017-06-08T03:20:47.718Z,0
2017-06-08T03:21:28.266Z,0
2017-06-08T03:22:08.813Z,0
2017-06-08T03:22:49.344Z,0
2017-06-08T03:23:29.876Z,0
2017-06-08T03:24:10.425Z,0
2017-06-08T03:24:50.968Z,0
2017-06-08T03:25:31.515Z,0
2017-06-08T03:26:12.057Z,0
2017-06-08T03:26:52.603Z,0
2017-06-08T03:27:33.138Z,0
2017-06-08T03:28:13.711Z,0
2017-06-08T03:28:54.253Z,0
2017-06-08T03:29:34.782Z,0
2017-06-08T03:30:15.325Z,0
2017-06-08T03:30:55.859Z,0
2017-06-08T03:31:36.394Z,0
2017-06-08T03:32:16.934Z,0
2017-06-08T03:32:57.483Z,0
2017-06-08T03:33:38.027Z,0
2017-06-08T03:34:18.653Z,0
2017-06-08T03:34:59.202Z,0
2017-06-08T03:35:39.738Z,0
2017-06-08T03:36:20.272Z,0
2017-06-08T03:37:00.850Z,0
2017-06-08T03:37:41.398Z,0
2017-06-08T03:38:21.940Z,0
2017-06-08T03:39:02.487Z,0
2017-06-08T03:39:43.025Z,0
2017-06-08T03:40:23.566Z,0
2017-06-08T03:41:04.110Z,5
2017-06-08T03:41:44.645Z,5
2017-06-08T03:42:25.183Z,5
2017-06-08T03:43:05.732Z,5
2017-06-08T03:43:46.270Z,5
2017-06-08T03:44:26.798Z,5
2017-06-08T03:45:07.348Z,5
2017-06-08T03:45:47.890Z,5
2017-06-08T03:46:28.480Z,5
2017-06-08T03:47:09.062Z,5
2017-06-08T03:47:49.611Z,5
2017-06-08T03:48:30.149Z,5
2017-06-08T03:49:10.700Z,5
2017-06-08T03:49:51.402Z,5
2017-06-08T03:50:31.941Z,5
2017-06-08T03:51:12.484Z,5
2017-06-08T03:51:53.024Z,5
2017-06-08T03:52:33.599Z,5
2017-06-08T03:53:14.134Z,10
2017-06-08T03:53:54.681Z,10
2017-06-08T03:54:35.240Z,10
2017-06-08T03:55:15.764Z,10
2017-06-08T03:55:56.315Z,10
2017-06-08T03:56:36.855Z,10
2017-06-08T03:57:17.391Z,10
2017-06-08T03:57:57.941Z,10
2017-06-08T03:58:38.729Z,10
2017-06-08T03:59:19.275Z,10
2017-06-08T03:59:59.904Z,10
2017-06-08T04:00:40.808Z,10
2017-06-08T04:01:21.356Z,15
2017-06-08T04:02:01.901Z,15
2017-06-08T04:02:42.448Z,15
2017-06-08T04:03:22.999Z,15
2017-06-08T04:04:03.554Z,15
2017-06-08T04:04:44.095Z,15
2017-06-08T04:05:24.644Z,15
2017-06-08T04:06:05.194Z,15
2017-06-08T04:06:45.735Z,15
2017-06-08T04:07:26.278Z,15
2017-06-08T04:08:06.824Z,15
2017-06-08T04:08:47.346Z,20
2017-06-08T04:09:27.888Z,20
2017-06-08T04:10:08.434Z,25
2017-06-08T04:10:48.967Z,25
2017-06-08T04:11:29.503Z,25
2017-06-08T04:12:10.051Z,25
2017-06-08T04:12:50.600Z,25
2017-06-08T04:13:31.140Z,25
2017-06-08T04:14:11.688Z,25
2017-06-08T04:14:52.228Z,25
2017-06-08T04:15:32.769Z,25
2017-06-08T04:16:13.302Z,25
2017-06-08T04:16:53.847Z,25
2017-06-08T04:17:34.383Z,25
2017-06-08T04:18:14.923Z,25
2017-06-08T04:18:55.459Z,25
2017-06-08T04:19:36.008Z,25
2017-06-08T04:20:16.547Z,25
2017-06-08T04:20:57.087Z,25
2017-06-08T04:21:37.631Z,25
2017-06-08T04:22:18.162Z,25
2017-06-08T04:22:58.700Z,30
2017-06-08T04:23:39.235Z,30
2017-06-08T04:24:19.773Z,30
2017-06-08T04:25:00.322Z,30
2017-06-08T04:25:40.952Z,30
2017-06-08T04:26:21.543Z,30
2017-06-08T04:27:02.203Z,35
2017-06-08T04:27:42.742Z,35
2017-06-08T04:28:23.274Z,35
2017-06-08T04:29:03.845Z,35
2017-06-08T04:29:44.361Z,35
2017-06-08T04:30:24.904Z,35
2017-06-08T04:31:05.448Z,35
2017-06-08T04:31:45.997Z,40
2017-06-08T04:32:26.526Z,40
2017-06-08T04:33:07.078Z,45
2017-06-08T04:33:47.621Z,45
2017-06-08T04:34:28.178Z,50
2017-06-08T04:35:08.722Z,55
2017-06-08T04:35:49.261Z,55
2017-06-08T04:36:29.805Z,60
2017-06-08T04:37:10.337Z,65
2017-06-08T04:37:50.884Z,65
2017-06-08T04:38:31.428Z,65
2017-06-08T04:39:11.968Z,65
2017-06-08T04:39:52.507Z,65
2017-06-08T04:40:33.063Z,60
2017-06-08T04:41:13.610Z,60
2017-06-08T04:41:54.151Z,60
2017-06-08T04:42:34.687Z,60
2017-06-08T04:43:15.229Z,60
2017-06-08T04:43:55.777Z,60
2017-06-08T04:44:36.321Z,60
2017-06-08T04:45:16.862Z,60
2017-06-08T04:45:57.403Z,60
2017-06-08T04:46:37.940Z,60
2017-06-08T04:47:18.476Z,60
2017-06-08T04:47:59.925Z,65
2017-06-08T04:48:39.626Z,65
2017-06-08T04:49:20.184Z,70
2017-06-08T04:50:00.712Z,75
2017-06-08T04:50:41.259Z,75
2017-06-08T04:51:21.808Z,75
2017-06-08T04:52:02.347Z,75
2017-06-08T04:52:42.886Z,75
2017-06-08T04:53:23.422Z,75
2017-06-08T04:54:03.951Z,75
2017-06-08T04:54:44.497Z,75
2017-06-08T04:55:25.042Z,75
2017-06-08T04:56:05.590Z,75
2017-06-08T04:56:46.135Z,75
2017-06-08T04:57:26.673Z,75
2017-06-08T04:58:07.216Z,70
2017-06-08T04:58:47.753Z,70
2017-06-08T04:59:28.304Z,70
2017-06-08T05:00:08.854Z,70
2017-06-08T05:00:49.398Z,70
2017-06-08T05:01:29.931Z,75
2017-06-08T05:02:10.482Z,75
2017-06-08T05:02:51.017Z,80
2017-06-08T05:03:31.553Z,80
2017-06-08T05:04:12.100Z,85
2017-06-08T05:04:52.650Z,90
2017-06-08T05:05:33.192Z,90
2017-06-08T05:06:13.733Z,95
2017-06-08T05:06:54.277Z,90
2017-06-08T05:07:34.821Z,85
2017-06-08T05:08:15.375Z,80
2017-06-08T05:08:55.918Z,80
2017-06-08T05:09:36.469Z,75
2017-06-08T05:10:17.018Z,75
2017-06-08T05:10:57.576Z,75
2017-06-08T05:11:38.128Z,75
2017-06-08T05:12:18.703Z,80
2017-06-08T05:12:59.209Z,80
2017-06-08T05:13:39.744Z,85
2017-06-08T05:14:20.274Z,90
2017-06-08T05:15:00.814Z,95
2017-06-08T05:15:41.383Z,100
2017-06-08T05:16:21.919Z,100
2017-06-08T05:17:02.466Z,105
2017-06-08T05:17:43.012Z,105
2017-06-08T05:18:23.553Z,105
2017-06-08T05:19:04.081Z,100
2017-06-08T05:19:44.641Z,100
2017-06-08T05:20:25.181Z,105
2017-06-08T05:21:05.730Z,105
2017-06-08T05:21:46.270Z,105
2017-06-08T05:22:26.833Z,105
2017-06-08T05:23:07.383Z,105
2017-06-08T05:23:47.923Z,105
2017-06-08T05:24:28.462Z,105
2017-06-08T05:25:09.006Z,105
2017-06-08T05:25:49.533Z,105
2017-06-08T05:26:30.077Z,100
2017-06-08T05:27:10.614Z,100
2017-06-08T05:27:51.160Z,100
2017-06-08T05:28:31.695Z,95
2017-06-08T05:29:12.243Z,100
2017-06-08T05:29:52.803Z,100
2017-06-08T05:30:33.355Z,100
2017-06-08T05:31:13.896Z,100
2017-06-08T05:31:54.451Z,100
2017-06-08T05:32:35.006Z,95
2017-06-08T05:33:15.555Z,100
2017-06-08T05:33:56.099Z,100
2017-06-08T05:34:36.653Z,100
2017-06-08T05:35:17.210Z,100
2017-06-08T05:35:57.752Z,100
2017-06-08T05:36:38.370Z,100
2017-06-08T05:37:18.924Z,100
2017-06-08T05:37:59.480Z,105
2017-06-08T05:38:40.024Z,105
2017-06-08T05:39:20.590Z,110
2017-06-08T05:40:01.128Z,110
2017-06-08T05:40:41.676Z,115
2017-06-08T05:41:22.294Z,120
2017-06-08T05:42:02.924Z,125
2017-06-08T05:42:43.472Z,135
2017-06-08T05:43:24.024Z,140
2017-06-08T05:44:04.570Z,140
2017-06-08T05:44:45.133Z,145
2017-06-08T05:45:25.674Z,140
2017-06-08T05:46:06.217Z,135
2017-06-08T05:46:46.768Z,125
2017-06-08T05:47:27.323Z,120
2017-06-08T05:48:07.874Z,110
2017-06-08T05:48:48.436Z,110
2017-06-08T05:49:28.989Z,110
2017-06-08T05:50:09.538Z,115
2017-06-08T05:50:50.100Z,120
2017-06-08T05:51:30.647Z,130
2017-06-08T05:52:11.195Z,140
2017-06-08T05:52:52.032Z,155
2017-06-08T05:53:32.728Z,175
2017-06-08T05:54:13.270Z,200
2017-06-08T05:54:53.813Z,220
2017-06-08T05:55:34.351Z,235
2017-06-08T05:56:14.905Z,260
2017-06-08T05:56:55.451Z,280
2017-06-08T05:57:35.995Z,300
2017-06-08T05:58:16.549Z,315
2017-06-08T05:58:57.093Z,320
2017-06-08T05:59:37.639Z,320
2017-06-08T06:00:18.187Z,315
2017-06-08T06:00:58.729Z,315
2017-06-08T06:01:39.279Z,310
2017-06-08T06:02:19.903Z,310
2017-06-08T06:03:00.441Z,300
2017-06-08T06:03:41.092Z,295
2017-06-08T06:04:21.645Z,295
2017-06-08T06:05:02.194Z,290
2017-06-08T06:05:42.739Z,285
2017-06-08T06:06:23.281Z,280
2017-06-08T06:07:03.825Z,265
2017-06-08T06:07:44.366Z,245
2017-06-08T06:08:24.963Z,220
2017-06-08T06:09:05.510Z,205
2017-06-08T06:09:46.050Z,195
2017-06-08T06:10:26.588Z,185
2017-06-08T06:11:07.135Z,180
2017-06-08T06:11:47.691Z,170
2017-06-08T06:12:28.244Z,160
2017-06-08T06:13:08.786Z,155
2017-06-08T06:13:49.951Z,155
2017-06-08T06:14:29.893Z,155
2017-06-08T06:15:10.439Z,160
2017-06-08T06:15:50.978Z,165
2017-06-08T06:16:31.533Z,170
2017-06-08T06:17:12.077Z,175
2017-06-08T06:17:52.630Z,165
2017-06-08T06:18:33.193Z,150
2017-06-08T06:19:13.742Z,135
2017-06-08T06:19:54.290Z,130
2017-06-08T06:20:34.834Z,130
2017-06-08T06:21:15.382Z,130
2017-06-08T06:21:55.935Z,135
2017-06-08T06:22:36.498Z,145
2017-06-08T06:23:17.037Z,150
2017-06-08T06:23:57.591Z,155
2017-06-08T06:24:38.149Z,165
2017-06-08T06:25:18.700Z,175
2017-06-08T06:25:59.229Z,180
2017-06-08T06:26:39.770Z,190
2017-06-08T06:27:20.331Z,200
2017-06-08T06:28:00.892Z,205
2017-06-08T06:28:41.448Z,195
2017-06-08T06:29:21.998Z,190
2017-06-08T06:30:02.544Z,185
2017-06-08T06:30:43.097Z,190
2017-06-08T06:31:23.650Z,185
2017-06-08T06:32:04.203Z,175
2017-06-08T06:32:44.748Z,165
2017-06-08T06:33:25.304Z,170
2017-06-08T06:34:05.854Z,175
2017-06-08T06:34:46.397Z,180
2017-06-08T06:35:27.086Z,190
2017-06-08T06:36:07.556Z,195
2017-06-08T06:36:48.138Z,195
2017-06-08T06:37:28.698Z,200
2017-06-08T06:38:09.247Z,205
2017-06-08T06:38:49.786Z,215
2017-06-08T06:39:30.338Z,225
2017-06-08T06:40:10.897Z,235
2017-06-08T06:40:51.442Z,245
2017-06-08T06:41:31.993Z,255
2017-06-08T06:42:12.539Z,260
2017-06-08T06:42:53.090Z,270
2017-06-08T06:44:14.288Z,285
2017-06-08T06:44:54.878Z,290
2017-06-08T06:45:35.495Z,305
2017-06-08T06:46:16.049Z,325
2017-06-08T06:46:56.600Z,350
2017-06-08T06:47:37.152Z,365
2017-06-08T06:48:17.710Z,370
2017-06-08T06:48:58.259Z,350
2017-06-08T06:49:38.839Z,325
2017-06-08T06:50:19.362Z,300
2017-06-08T06:50:59.904Z,270
2017-06-08T06:51:40.443Z,240
2017-06-08T06:52:20.980Z,215
2017-06-08T06:53:01.521Z,200
2017-06-08T06:53:42.061Z,195
2017-06-08T06:54:22.650Z,185
2017-06-08T06:55:03.174Z,175
2017-06-08T06:55:43.717Z,165
2017-06-08T06:56:24.257Z,160
2017-06-08T06:57:04.795Z,160
2017-06-08T06:57:45.336Z,165
2017-06-08T06:58:25.887Z,165
2017-06-08T06:59:06.440Z,160
2017-06-08T06:59:46.982Z,170
2017-06-08T07:00:27.533Z,190
2017-06-08T07:01:08.082Z,210
2017-06-08T07:01:48.633Z,225
2017-06-08T07:02:29.182Z,230
2017-06-08T07:03:09.724Z,250
2017-06-08T07:03:50.277Z,265
2017-06-08T07:04:30.810Z,275
2017-06-08T07:05:11.361Z,290
2017-06-08T07:05:51.916Z,305
2017-06-08T07:06:32.440Z,325
2017-06-08T07:07:12.979Z,345
2017-06-08T07:07:53.524Z,355
2017-06-08T07:08:34.072Z,350
2017-06-08T07:09:14.615Z,345
2017-06-08T07:09:55.160Z,355
2017-06-08T07:10:35.708Z,360
2017-06-08T07:11:16.254Z,375
2017-06-08T07:11:56.805Z,395
2017-06-08T07:12:37.346Z,410
2017-06-08T07:13:17.889Z,420
2017-06-08T07:13:58.430Z,420
2017-06-08T07:14:38.977Z,415
2017-06-08T07:15:19.529Z,395
2017-06-08T07:16:00.089Z,385
2017-06-08T07:16:40.623Z,365
2017-06-08T07:17:21.173Z,345
2017-06-08T07:18:01.725Z,335
2017-06-08T07:18:42.297Z,340
2017-06-08T07:19:22.829Z,355
2017-06-08T07:20:03.351Z,370
2017-06-08T07:20:43.893Z,410
2017-06-08T07:21:24.453Z,450
2017-06-08T07:22:04.998Z,480
2017-06-08T07:22:45.545Z,520
2017-06-08T07:23:26.080Z,540
2017-06-08T07:24:06.617Z,520
2017-06-08T07:24:47.168Z,555
2017-06-08T07:25:27.719Z,575
2017-06-08T07:26:08.262Z,555
2017-06-08T07:26:48.814Z,585
2017-06-08T07:27:29.359Z,590
2017-06-08T07:28:09.907Z,650
2017-06-08T07:28:50.450Z,675
2017-06-08T07:29:30.988Z,690
2017-06-08T07:30:11.535Z,660
2017-06-08T07:30:52.093Z,640
2017-06-08T07:31:32.666Z,635
2017-06-08T07:32:13.215Z,655
2017-06-08T07:32:53.771Z,660
2017-06-08T07:33:34.319Z,715
2017-06-08T07:34:14.905Z,670
2017-06-08T07:34:55.474Z,685
2017-06-08T07:35:36.009Z,690
2017-06-08T07:36:16.575Z,645
2017-06-08T07:36:57.117Z,610
2017-06-08T07:37:37.664Z,605
2017-06-08T07:38:18.225Z,545
2017-06-08T07:38:58.769Z,645
2017-06-08T07:39:39.336Z,615
2017-06-08T07:40:19.879Z,525
2017-06-08T07:41:00.423Z,505
2017-06-08T07:41:40.972Z,535
2017-06-08T07:42:21.532Z,625
2017-06-08T07:43:02.068Z,470
2017-06-08T07:43:42.611Z,490
2017-06-08T07:44:23.156Z,455
2017-06-08T07:45:03.703Z,445
2017-06-08T07:45:44.237Z,455
2017-06-08T07:46:24.807Z,480
2017-06-08T07:47:05.355Z,465
2017-06-08T07:47:45.890Z,470
2017-06-08T07:48:26.440Z,465
2017-06-08T07:49:06.990Z,470
2017-06-08T07:49:47.550Z,470
2017-06-08T07:50:28.090Z,465
2017-06-08T07:51:08.639Z,470
2017-06-08T07:51:49.176Z,445
2017-06-08T07:52:29.727Z,440
2017-06-08T07:53:10.270Z,470
2017-06-08T07:53:50.824Z,500
2017-06-08T07:54:31.358Z,555
2017-06-08T07:55:11.895Z,560
2017-06-08T07:55:52.439Z,560
2017-06-08T07:56:32.992Z,570
2017-06-08T07:57:13.523Z,570
2017-06-08T07:57:54.071Z,560
2017-06-08T07:58:34.622Z,575
2017-06-08T07:59:15.172Z,565
2017-06-08T07:59:55.723Z,590
2017-06-08T08:00:36.266Z,615
2017-06-08T08:01:16.810Z,625
2017-06-08T08:01:57.355Z,650
2017-06-08T08:02:37.906Z,665
2017-06-08T08:03:18.456Z,670
2017-06-08T08:03:59.005Z,690
2017-06-08T08:04:39.557Z,740
2017-06-08T08:05:20.098Z,740
2017-06-08T08:06:00.656Z,800
2017-06-08T08:06:41.210Z,1005
2017-06-08T08:07:21.756Z,1775
2017-06-08T08:08:02.303Z,2145
2017-06-08T08:08:42.849Z,2215
2017-06-08T08:09:23.402Z,2440
2017-06-08T08:10:03.951Z,2425
2017-06-08T08:10:44.516Z,2405
2017-06-08T08:11:25.068Z,2215
2017-06-08T08:12:05.620Z,2065
2017-06-08T08:12:46.168Z,2175
2017-06-08T08:13:26.707Z,2270
2017-06-08T08:14:07.256Z,2525
2017-06-08T08:14:47.804Z,2115
2017-06-08T08:15:28.355Z,1695
2017-06-08T08:16:08.905Z,1255
2017-06-08T08:16:49.457Z,875
2017-06-08T08:17:30.011Z,920
2017-06-08T08:18:10.558Z,770
2017-06-08T08:18:51.099Z,830
2017-06-08T08:19:31.669Z,1120
2017-06-08T08:20:12.270Z,1030
2017-06-08T08:20:52.838Z,800
2017-06-08T08:21:33.377Z,835
2017-06-08T08:22:13.932Z,830
2017-06-08T08:22:54.482Z,845
2017-06-08T08:23:35.033Z,730
2017-06-08T08:24:15.574Z,635
2017-06-08T08:24:56.126Z,610
2017-06-08T08:25:36.676Z,885
2017-06-08T08:26:17.228Z,1050
2017-06-08T08:26:57.779Z,1570
2017-06-08T08:27:38.334Z,1290
2017-06-08T08:28:18.882Z,1150
2017-06-08T08:28:59.430Z,2100
2017-06-08T08:29:39.983Z,1610
2017-06-08T08:30:20.536Z,1425
2017-06-08T08:31:01.084Z,1065
2017-06-08T08:31:41.626Z,1265
2017-06-08T08:32:22.167Z,1660
2017-06-08T08:33:02.715Z,1830
2017-06-08T08:33:43.265Z,1735
2017-06-08T08:34:23.822Z,1705
2017-06-08T08:35:04.366Z,1230
2017-06-08T08:35:44.910Z,1460
2017-06-08T08:36:25.464Z,1655
2017-06-08T08:37:06.014Z,1665
2017-06-08T08:37:46.555Z,1190
2017-06-08T08:38:27.114Z,945
2017-06-08T08:39:07.674Z,630
2017-06-08T08:39:48.245Z,520
2017-06-08T08:40:28.798Z,550
2017-06-08T08:41:09.349Z,585
2017-06-08T08:41:49.897Z,630
2017-06-08T08:42:30.447Z,800
2017-06-08T08:43:10.991Z,945
2017-06-08T08:43:51.549Z,1130
2017-06-08T08:44:32.100Z,1270
2017-06-08T08:45:12.650Z,1880
2017-06-08T08:45:53.200Z,1625
2017-06-08T08:46:33.747Z,1975
2017-06-08T08:47:14.301Z,1990
2017-06-08T08:47:54.851Z,2115
2017-06-08T08:48:35.391Z,1365
2017-06-08T08:49:15.949Z,1090
2017-06-08T08:49:56.485Z,865
2017-06-08T08:50:37.015Z,805
2017-06-08T08:51:17.564Z,785
2017-06-08T08:51:58.104Z,805
2017-06-08T08:52:38.644Z,770
2017-06-08T08:53:19.193Z,650
2017-06-08T08:53:59.746Z,615
2017-06-08T08:54:40.300Z,650
2017-06-08T08:55:20.833Z,690
2017-06-08T08:56:01.374Z,835
2017-06-08T08:56:41.918Z,680
2017-06-08T08:57:22.469Z,525
2017-06-08T08:58:03.017Z,535
2017-06-08T08:58:43.579Z,650
2017-06-08T08:59:24.121Z,1035
2017-06-08T09:00:04.669Z,1155
2017-06-08T09:00:45.210Z,1135
2017-06-08T09:01:25.875Z,1285
2017-06-08T09:02:06.429Z,1150
2017-06-08T09:02:46.977Z,1220
2017-06-08T09:03:27.519Z,1345
2017-06-08T09:04:08.067Z,1485
2017-06-08T09:04:48.609Z,2465
2017-06-08T09:05:29.159Z,2120
2017-06-08T09:06:09.707Z,3030
2017-06-08T09:06:50.258Z,2675
2017-06-08T09:07:30.805Z,2780
2017-06-08T09:08:11.376Z,2075
2017-06-08T09:08:51.916Z,3640
2017-06-08T09:09:32.464Z,3715
2017-06-08T09:10:13.013Z,3070
2017-06-08T09:10:53.565Z,2870
2017-06-08T09:11:34.111Z,2740
2017-06-08T09:12:14.661Z,1805
2017-06-08T09:12:55.212Z,1695
2017-06-08T09:13:35.770Z,1555
2017-06-08T09:14:16.373Z,1360
2017-06-08T09:14:56.925Z,1070
2017-06-08T09:15:37.518Z,930
2017-06-08T09:16:18.027Z,915
2017-06-08T09:16:58.590Z,955
2017-06-08T09:17:39.247Z,930
2017-06-08T09:18:19.797Z,890
2017-06-08T09:19:00.348Z,780
2017-06-08T09:19:40.911Z,710
2017-06-08T09:20:21.539Z,660
2017-06-08T09:21:02.092Z,630
2017-06-08T09:21:42.666Z,595
2017-06-08T09:22:23.214Z,570
2017-06-08T09:23:03.769Z,560
2017-06-08T09:23:44.318Z,570
2017-06-08T09:24:24.890Z,580
2017-06-08T09:25:05.457Z,605
2017-06-08T09:25:46.007Z,630
2017-06-08T09:26:26.553Z,635
2017-06-08T09:27:07.097Z,650
2017-06-08T09:27:47.647Z,650
2017-06-08T09:28:28.185Z,645
2017-06-08T09:29:08.737Z,655
2017-06-08T09:29:49.286Z,685
2017-06-08T09:30:29.868Z,710
2017-06-08T09:31:10.439Z,735
2017-06-08T09:31:50.983Z,745
2017-06-08T09:32:31.545Z,920
2017-06-08T09:33:12.083Z,1080
2017-06-08T09:33:52.628Z,2615
2017-06-08T09:34:33.180Z,3160
2017-06-08T09:35:13.729Z,2350
2017-06-08T09:35:54.283Z,1495
2017-06-08T09:36:34.838Z,825
2017-06-08T09:37:15.392Z,615
2017-06-08T09:37:55.932Z,590
2017-06-08T09:38:36.483Z,580
2017-06-08T09:39:17.050Z,600
2017-06-08T09:39:57.630Z,605